Time;durP1;ratioP1;P1;durP2;ratioP2;P2;SDS_P1;SDS_P2;PMS_P1;PMS_P2;Temp;Humidity;BMP_temperature;BMP_pressure;BME280_temperature;BME280_humidity;BME280_pressure;Samples;Min_cycle;Max_cycle;Signal;HPM_P1;HPM_P2
2022/06/05 00:00:54;;;;;;;1.40;1.20;;;21.20;91.30;;;;;;5045559;28;46211;-69
2022/06/05 00:03:31;;;;;;;1.67;1.40;;;21.20;91.40;;;;;;5044978;28;45351;-69
2022/06/05 00:06:07;;;;;;;1.85;1.20;;;21.20;91.40;;;;;;5045806;28;45339;-69
2022/06/05 00:08:52;;;;;;;1.50;1.20;;;21.20;91.20;;;;;;5037558;28;45268;-69
2022/06/05 00:11:20;;;;;;;1.63;1.42;;;21.20;91.20;;;;;;5042875;28;45980;-69
2022/06/05 00:13:49;;;;;;;1.20;1.10;;;21.20;91.20;;;;;;5044553;28;45292;-69
2022/06/05 00:16:19;;;;;;;2.10;1.17;;;21.20;91.30;;;;;;5044476;28;45347;-69
2022/06/05 00:18:47;;;;;;;1.35;1.20;;;21.20;91.30;;;;;;5044564;28;45333;-69
2022/06/05 00:21:15;;;;;;;1.23;1.13;;;21.20;91.30;;;;;;5043410;28;45259;-69
2022/06/05 00:23:42;;;;;;;1.30;1.17;;;21.30;91.80;;;;;;5043613;28;45385;-69
2022/06/05 00:26:19;;;;;;;1.10;1.00;;;21.30;91.40;;;;;;5047055;28;45133;-69
2022/06/05 00:28:57;;;;;;;1.45;1.35;;;21.20;91.40;;;;;;5041993;28;45226;-69
2022/06/05 00:31:32;;;;;;;1.50;1.40;;;21.20;91.40;;;;;;5037689;28;45366;-69
2022/06/05 00:34:00;;;;;;;2.00;1.25;;;21.30;91.40;;;;;;5045647;28;45252;-69
2022/06/05 00:36:46;;;;;;;1.52;1.25;;;21.30;91.50;;;;;;5042096;28;46156;-69
2022/06/05 00:39:18;;;;;;;1.80;1.20;;;21.30;91.40;;;;;;5040237;28;45363;-69
2022/06/05 00:42:04;;;;;;;1.67;1.40;;;21.30;91.40;;;;;;5041764;28;45437;-69
2022/06/05 00:44:35;;;;;;;1.20;1.10;;;21.30;91.40;;;;;;5043334;28;45190;-69
2022/06/05 00:47:03;;;;;;;1.52;1.30;;;21.30;91.40;;;;;;5044710;28;45221;-69
2022/06/05 00:49:37;;;;;;;1.35;1.25;;;21.30;91.40;;;;;;5044380;28;45421;-69
2022/06/05 00:52:07;;;;;;;1.65;1.35;;;21.20;91.30;;;;;;5045114;28;46184;-69
2022/06/05 00:54:34;;;;;;;1.20;1.10;;;21.30;91.50;;;;;;5040692;28;45169;-69
2022/06/05 00:57:00;;;;;;;1.38;1.20;;;21.20;91.30;;;;;;5037488;28;45276;-69
2022/06/05 00:59:28;;;;;;;1.52;1.42;;;21.30;91.20;;;;;;5045955;28;45446;-69
2022/06/05 01:01:59;;;;;;;1.25;1.15;;;21.30;91.20;;;;;;5044282;28;45690;-69
2022/06/05 01:04:27;;;;;;;1.50;1.40;;;21.20;91.10;;;;;;5041946;28;46851;-69
2022/06/05 01:06:56;;;;;;;1.70;1.60;;;21.20;91.10;;;;;;5042414;28;45543;-69
2022/06/05 01:09:23;;;;;;;1.45;1.35;;;21.20;91.50;;;;;;5039087;28;45435;-69
2022/06/05 01:12:01;;;;;;;1.48;1.38;;;21.20;91.40;;;;;;5043387;28;45987;-69
2022/06/05 01:14:39;;;;;;;1.40;1.30;;;21.20;91.20;;;;;;5045871;28;45400;-69
2022/06/05 01:17:13;;;;;;;1.55;1.25;;;21.20;91.10;;;;;;5045884;28;45272;-69
2022/06/05 01:19:46;;;;;;;1.90;1.40;;;21.20;91.10;;;;;;5038746;28;45237;-69
2022/06/05 01:22:52;;;;;;;1.65;1.50;;;21.20;91.10;;;;;;5042413;28;45481;-69
2022/06/05 01:25:38;;;;;;;2.08;1.80;;;21.20;91.20;;;;;;5035789;28;45356;-69
2022/06/05 01:28:10;;;;;;;1.52;1.42;;;21.20;91.30;;;;;;5043285;28;45457;-69
2022/06/05 01:30:46;;;;;;;1.65;1.50;;;21.20;91.20;;;;;;5032432;28;46498;-69
2022/06/05 01:33:18;;;;;;;1.40;1.30;;;21.20;91.10;;;;;;5040406;28;45359;-69
2022/06/05 01:35:49;;;;;;;1.50;1.40;;;21.20;91.20;;;;;;5046038;28;45315;-69
2022/06/05 01:38:22;;;;;;;1.60;1.50;;;21.20;91.60;;;;;;5043603;28;45316;-69
2022/06/05 01:40:54;;;;;;;1.40;1.30;;;21.20;91.70;;;;;;5041372;28;45273;-69
2022/06/05 01:43:26;;;;;;;1.20;1.10;;;21.20;91.90;;;;;;5032381;28;46285;-69
2022/06/05 01:45:56;;;;;;;1.50;1.38;;;21.20;91.90;;;;;;5044312;28;45347;-69
2022/06/05 01:48:28;;;;;;;1.30;1.20;;;21.30;92.10;;;;;;5046257;28;45416;-69
2022/06/05 01:50:58;;;;;;;1.65;1.52;;;21.30;92.30;;;;;;5035220;28;45239;-69
2022/06/05 01:53:31;;;;;;;1.42;1.33;;;21.30;92.20;;;;;;5037117;28;46238;-69
2022/06/05 01:56:04;;;;;;;1.13;1.02;;;21.30;92.40;;;;;;5041517;28;45218;-69
2022/06/05 01:58:35;;;;;;;1.45;1.30;;;21.30;92.30;;;;;;5046940;28;45530;-69
2022/06/05 02:01:07;;;;;;;1.67;1.58;;;21.30;92.30;;;;;;5043619;28;45245;-69
2022/06/05 02:03:37;;;;;;;1.35;1.25;;;21.30;92.30;;;;;;5041266;28;46327;-69
2022/06/05 02:06:09;;;;;;;1.45;1.35;;;21.30;92.30;;;;;;5042560;28;45631;-69
2022/06/05 02:08:38;;;;;;;1.77;1.40;;;21.30;92.40;;;;;;5034516;28;45381;-69
2022/06/05 02:11:13;;;;;;;1.73;1.63;;;21.30;92.80;;;;;;5044563;28;45340;-69
2022/06/05 02:13:40;;;;;;;1.40;1.30;;;21.30;92.50;;;;;;5039092;28;46191;-69
2022/06/05 02:16:08;;;;;;;2.08;1.60;;;21.30;92.50;;;;;;5044666;28;45318;-69
2022/06/05 02:18:35;;;;;;;1.60;1.35;;;21.30;92.40;;;;;;5034602;28;45324;-69
2022/06/05 02:21:02;;;;;;;2.53;1.60;;;21.30;92.40;;;;;;5045550;28;45174;-69
2022/06/05 02:23:33;;;;;;;1.55;1.45;;;21.30;92.10;;;;;;5041319;28;47426;-69
2022/06/05 02:26:02;;;;;;;1.67;1.58;;;21.30;91.80;;;;;;5040560;28;45216;-69
2022/06/05 02:28:30;;;;;;;1.52;1.40;;;21.30;91.70;;;;;;5037983;28;45337;-69
2022/06/05 02:31:06;;;;;;;1.58;1.48;;;21.30;91.60;;;;;;5044893;28;45201;-69
2022/06/05 02:33:42;;;;;;;1.60;1.50;;;21.30;91.50;;;;;;5044392;28;47933;-69
2022/06/05 02:36:18;;;;;;;1.83;1.70;;;21.20;91.80;;;;;;5042503;28;45635;-69
2022/06/05 02:38:58;;;;;;;1.70;1.45;;;21.30;91.40;;;;;;5038189;28;45794;-69
2022/06/05 02:41:33;;;;;;;1.50;1.35;;;21.20;91.20;;;;;;5042157;28;45574;-69
2022/06/05 02:46:57;;;;;;;1.55;1.45;;;21.20;91.20;;;;;;5039375;28;45205;-69
2022/06/05 02:49:30;;;;;;;1.50;1.40;;;21.20;91.40;;;;;;5044796;28;45186;-69
2022/06/05 02:52:02;;;;;;;1.90;1.55;;;21.20;91.60;;;;;;5046469;28;45511;-69
2022/06/05 02:54:30;;;;;;;1.85;1.75;;;21.30;91.80;;;;;;5045601;28;45312;-69
2022/06/05 02:56:57;;;;;;;1.60;1.50;;;21.30;92.00;;;;;;5047123;28;45151;-69
2022/06/05 02:59:26;;;;;;;1.50;1.40;;;21.30;92.00;;;;;;5046595;28;45339;-69
2022/06/05 03:04:36;;;;;;;1.40;1.30;;;21.30;91.70;;;;;;5032405;28;45337;-69
2022/06/05 03:07:04;;;;;;;1.88;1.45;;;21.30;91.50;;;;;;5043723;28;45434;-69
2022/06/05 03:09:31;;;;;;;3.17;1.40;;;21.20;91.30;;;;;;5046110;28;45182;-69
2022/06/05 03:11:57;;;;;;;1.55;1.35;;;21.20;91.30;;;;;;5041754;28;45248;-69
2022/06/05 03:14:26;;;;;;;1.55;1.40;;;21.20;91.10;;;;;;5048300;28;47390;-69
2022/06/05 03:16:53;;;;;;;1.50;1.40;;;21.20;91.10;;;;;;5045751;28;45283;-69
2022/06/05 03:19:20;;;;;;;1.55;1.45;;;21.20;91.00;;;;;;5048854;28;45270;-68
2022/06/05 03:21:47;;;;;;;1.50;1.40;;;21.20;91.10;;;;;;5039720;28;45375;-68
2022/06/05 03:24:14;;;;;;;1.45;1.30;;;21.20;91.20;;;;;;5038101;28;47397;-69
2022/06/05 03:26:41;;;;;;;1.50;1.40;;;21.20;91.30;;;;;;5038057;28;45312;-69
2022/06/05 03:29:08;;;;;;;1.63;1.52;;;21.20;91.20;;;;;;5042130;28;45383;-69
2022/06/05 03:31:37;;;;;;;1.70;1.60;;;21.20;91.20;;;;;;5042198;28;45615;-69
2022/06/05 03:34:04;;;;;;;1.35;1.25;;;21.20;91.20;;;;;;5038768;28;47160;-69
2022/06/05 03:36:31;;;;;;;1.73;1.60;;;21.20;91.30;;;;;;5038946;28;45197;-69
2022/06/05 03:38:58;;;;;;;1.30;1.20;;;21.20;91.40;;;;;;5045213;28;45323;-69
2022/06/05 03:41:24;;;;;;;1.60;1.38;;;21.20;91.40;;;;;;5041718;28;45216;-69
2022/06/05 03:43:51;;;;;;;1.30;1.20;;;21.20;91.50;;;;;;5038329;28;47435;-69
2022/06/05 03:46:18;;;;;;;1.50;1.40;;;21.20;91.60;;;;;;5045976;28;45148;-69
2022/06/05 03:48:46;;;;;;;1.20;1.10;;;21.20;91.60;;;;;;5048179;28;45193;-69
2022/06/05 03:51:15;;;;;;;1.52;1.33;;;21.20;91.60;;;;;;5041340;28;45369;-69
2022/06/05 03:53:42;;;;;;;1.55;1.45;;;21.20;91.60;;;;;;5035368;28;45322;-69
2022/06/05 03:56:10;;;;;;;1.83;1.73;;;21.20;91.60;;;;;;5041476;28;45181;-69
2022/06/05 03:58:38;;;;;;;1.48;1.38;;;21.30;91.40;;;;;;5035748;28;45244;-69
2022/06/05 04:01:07;;;;;;;1.48;1.38;;;21.20;91.30;;;;;;5046773;28;45343;-69
2022/06/05 04:03:34;;;;;;;1.45;1.35;;;21.20;91.30;;;;;;5046726;28;46581;-69
2022/06/05 04:06:05;;;;;;;1.50;1.40;;;21.20;91.10;;;;;;5045503;28;46093;-69
2022/06/05 04:08:31;;;;;;;2.03;1.50;;;21.20;91.10;;;;;;5030801;28;45544;-69
2022/06/05 04:10:58;;;;;;;1.50;1.38;;;21.20;91.10;;;;;;5045779;28;45401;-69
2022/06/05 04:13:25;;;;;;;1.33;1.23;;;21.20;91.10;;;;;;5034119;28;45325;-69
2022/06/05 04:15:52;;;;;;;1.45;1.35;;;21.20;91.10;;;;;;5237451;22;45452;-68
2022/06/05 04:18:19;;;;;;;1.45;1.27;;;21.20;91.10;;;;;;5059055;28;45216;-68
2022/06/05 04:20:45;;;;;;;1.95;1.50;;;21.20;91.10;;;;;;5064382;28;45491;-69
2022/06/05 04:23:13;;;;;;;1.30;1.20;;;21.20;91.10;;;;;;5069416;28;47138;-69
2022/06/05 04:25:42;;;;;;;1.50;1.33;;;21.20;91.00;;;;;;5058365;28;45317;-69
2022/06/05 04:28:09;;;;;;;1.30;1.20;;;21.20;91.00;;;;;;5065198;28;46734;-69
2022/06/05 04:30:36;;;;;;;2.05;1.65;;;21.20;91.00;;;;;;5062766;28;45211;-69
2022/06/05 04:33:04;;;;;;;1.40;1.30;;;21.20;91.10;;;;;;5067349;28;46427;-69
2022/06/05 04:35:31;;;;;;;1.27;1.17;;;21.20;91.00;;;;;;5066016;28;45396;-69
2022/06/05 04:37:58;;;;;;;1.27;1.17;;;21.20;91.00;;;;;;5061682;28;45391;-69
2022/06/05 04:40:26;;;;;;;1.30;1.20;;;21.20;91.10;;;;;;5066011;28;45294;-69
2022/06/05 04:42:53;;;;;;;1.40;1.30;;;21.20;91.00;;;;;;5061275;28;46002;-68
2022/06/05 04:45:20;;;;;;;1.30;1.20;;;21.20;91.20;;;;;;5067299;28;46479;-69
2022/06/05 04:47:47;;;;;;;2.08;1.42;;;21.20;91.10;;;;;;5060996;28;45411;-69
2022/06/05 04:50:14;;;;;;;2.13;1.48;;;21.30;91.20;;;;;;5061929;28;45374;-69
2022/06/05 04:52:40;;;;;;;1.98;1.77;;;21.30;91.10;;;;;;5070697;28;45994;-69
2022/06/05 04:55:08;;;;;;;1.40;1.30;;;21.30;91.20;;;;;;5065805;28;45326;-69
2022/06/05 04:57:37;;;;;;;1.67;1.58;;;21.30;91.10;;;;;;5070986;28;45345;-69
2022/06/05 05:00:05;;;;;;;1.77;1.48;;;21.30;91.10;;;;;;5072107;28;45211;-69
2022/06/05 05:02:32;;;;;;;1.40;1.27;;;21.30;91.10;;;;;;5066296;28;46547;-69
2022/06/05 05:04:59;;;;;;;1.60;1.50;;;21.20;91.10;;;;;;5059122;28;45208;-69
2022/06/05 05:07:25;;;;;;;1.40;1.30;;;21.30;91.20;;;;;;5067370;28;45366;-69
2022/06/05 05:09:52;;;;;;;1.25;1.15;;;21.20;91.20;;;;;;5077842;28;45201;-69
2022/06/05 05:12:19;;;;;;;1.65;1.30;;;21.30;91.30;;;;;;5057867;28;45981;-69
2022/06/05 05:14:47;;;;;;;1.40;1.30;;;21.20;91.30;;;;;;5074082;28;45276;-69
2022/06/05 05:17:14;;;;;;;1.27;1.17;;;21.20;91.40;;;;;;5071264;28;45303;-68
2022/06/05 05:19:41;;;;;;;1.40;1.30;;;21.20;91.40;;;;;;5061704;28;45362;-69
2022/06/05 05:22:08;;;;;;;1.50;1.40;;;21.20;91.40;;;;;;5067992;28;46578;-69
2022/06/05 05:24:35;;;;;;;1.52;1.42;;;21.20;91.20;;;;;;5067883;28;45238;-69
2022/06/05 05:27:02;;;;;;;1.60;1.50;;;21.20;91.20;;;;;;5058918;28;45131;-69
2022/06/05 05:29:29;;;;;;;1.35;1.25;;;21.20;91.10;;;;;;5067025;28;45170;-69
2022/06/05 05:31:57;;;;;;;1.40;1.30;;;21.20;91.10;;;;;;5070449;28;46130;-69
2022/06/05 05:34:24;;;;;;;0.93;0.93;;;21.20;91.10;;;;;;5062153;28;45247;-69
2022/06/05 05:36:50;;;;;;;1.23;1.13;;;21.20;91.00;;;;;;5060093;28;45310;-69
2022/06/05 05:42:08;;;;;;;1.38;1.27;;;21.20;91.10;;;;;;5070376;28;45144;-69
2022/06/05 05:44:38;;;;;;;1.52;1.40;;;21.30;91.10;;;;;;5073511;28;45222;-69
2022/06/05 05:47:09;;;;;;;1.42;1.30;;;21.30;91.10;;;;;;5070123;28;45292;-69
2022/06/05 05:49:36;;;;;;;1.70;1.45;;;21.30;91.10;;;;;;5065744;28;45245;-69
2022/06/05 05:52:03;;;;;;;2.05;1.50;;;21.30;91.10;;;;;;5071066;28;47950;-69
2022/06/05 05:54:30;;;;;;;1.60;1.35;;;21.30;91.10;;;;;;5072077;28;45431;-69
2022/06/05 05:56:56;;;;;;;1.38;1.27;;;21.30;91.10;;;;;;5071436;28;45264;-69
2022/06/05 05:59:23;;;;;;;1.63;1.40;;;21.30;91.10;;;;;;5064108;28;45567;-69
2022/06/05 06:01:50;;;;;;;1.90;1.70;;;21.20;91.00;;;;;;5069485;28;45744;-69
2022/06/05 06:04:18;;;;;;;1.45;1.35;;;21.20;91.10;;;;;;5062350;28;45356;-69
2022/06/05 06:06:48;;;;;;;1.40;1.30;;;21.20;91.10;;;;;;5069036;28;45398;-69
2022/06/05 06:09:16;;;;;;;1.45;1.35;;;21.20;91.10;;;;;;5071507;28;45294;-69
2022/06/05 06:11:43;;;;;;;1.70;1.60;;;21.20;91.20;;;;;;5065401;28;46457;-69
2022/06/05 06:14:10;;;;;;;1.58;1.13;;;21.20;91.30;;;;;;5065574;28;45435;-69
2022/06/05 06:16:37;;;;;;;1.42;1.33;;;21.20;91.20;;;;;;5069779;28;45248;-69
2022/06/05 06:19:04;;;;;;;1.40;1.30;;;21.20;91.20;;;;;;5072610;28;46268;-69
2022/06/05 06:21:33;;;;;;;2.88;1.55;;;21.20;91.20;;;;;;5069613;28;47225;-69
2022/06/05 06:24:00;;;;;;;1.35;1.25;;;21.20;91.20;;;;;;5070682;28;45256;-69
2022/06/05 06:26:27;;;;;;;1.42;1.33;;;21.20;91.10;;;;;;5064625;28;45794;-69
2022/06/05 06:28:54;;;;;;;1.65;1.50;;;21.20;91.10;;;;;;5073623;28;45298;-69
2022/06/05 06:31:21;;;;;;;1.40;1.30;;;21.20;91.10;;;;;;5065834;28;45389;-69
2022/06/05 06:33:48;;;;;;;1.77;1.15;;;21.20;91.10;;;;;;5067885;28;45875;-69
2022/06/05 06:36:17;;;;;;;1.27;1.17;;;21.20;91.20;;;;;;5075325;28;45188;-69
2022/06/05 06:38:45;;;;;;;2.10;1.60;;;21.20;91.20;;;;;;5075341;28;45489;-69
2022/06/05 06:41:14;;;;;;;1.33;1.23;;;21.20;91.30;;;;;;5065879;28;47280;-69
2022/06/05 06:43:43;;;;;;;1.25;1.15;;;21.20;91.40;;;;;;5068745;28;45273;-69
2022/06/05 06:46:10;;;;;;;2.10;1.42;;;21.20;91.40;;;;;;5066747;28;45343;-69
2022/06/05 06:48:37;;;;;;;1.38;1.27;;;21.20;91.40;;;;;;5060241;28;45320;-68
2022/06/05 06:51:05;;;;;;;1.42;1.33;;;21.20;91.50;;;;;;5063331;28;45500;-69
2022/06/05 06:53:33;;;;;;;1.38;1.20;;;21.20;91.50;;;;;;5062521;28;46105;-69
2022/06/05 06:56:07;;;;;;;1.20;1.10;;;21.30;91.60;;;;;;5060626;28;45436;-69
2022/06/05 06:58:34;;;;;;;1.88;1.42;;;21.20;91.50;;;;;;5053152;28;45426;-69
2022/06/05 07:01:01;;;;;;;1.63;1.40;;;21.20;91.40;;;;;;5054534;28;46579;-68
2022/06/05 07:03:28;;;;;;;1.60;1.48;;;21.30;91.50;;;;;;5056524;28;45228;-68
2022/06/05 07:05:55;;;;;;;1.70;1.60;;;21.20;91.40;;;;;;5059032;28;45421;-68
2022/06/05 07:08:21;;;;;;;1.50;1.40;;;21.20;91.50;;;;;;5060732;28;45350;-69
2022/06/05 07:10:48;;;;;;;1.42;1.33;;;21.20;91.60;;;;;;5059156;28;47367;-69
2022/06/05 07:13:17;;;;;;;1.60;1.50;;;21.20;91.50;;;;;;5063415;28;45376;-68
2022/06/05 07:15:44;;;;;;;1.45;1.35;;;21.20;91.50;;;;;;5067509;28;45311;-68
2022/06/05 07:18:10;;;;;;;1.27;1.17;;;21.20;91.50;;;;;;5061332;28;45617;-69
2022/06/05 07:20:39;;;;;;;2.22;1.60;;;21.20;91.50;;;;;;5061303;28;46399;-69
2022/06/05 07:23:07;;;;;;;1.30;1.20;;;21.20;91.50;;;;;;5068218;28;45268;-69
2022/06/05 07:25:36;;;;;;;1.48;1.38;;;21.20;91.90;;;;;;5070938;28;45261;-68
2022/06/05 07:28:04;;;;;;;1.67;1.40;;;21.20;91.50;;;;;;5063465;28;45624;-69
2022/06/05 07:30:33;;;;;;;1.30;1.20;;;21.30;91.50;;;;;;5066718;28;45229;-68
2022/06/05 07:32:59;;;;;;;1.50;1.40;;;21.30;91.50;;;;;;5070864;28;45275;-68
2022/06/05 07:35:26;;;;;;;1.60;1.30;;;21.30;91.50;;;;;;5067032;28;45556;-68
2022/06/05 07:37:53;;;;;;;1.55;1.40;;;21.30;91.50;;;;;;5066833;28;45566;-69
2022/06/05 07:40:20;;;;;;;1.80;1.67;;;21.30;91.60;;;;;;5068360;28;48728;-69
2022/06/05 07:42:47;;;;;;;1.50;1.40;;;21.30;91.60;;;;;;5067396;28;45193;-69
2022/06/05 07:45:16;;;;;;;1.80;1.55;;;21.30;91.60;;;;;;5068428;28;45478;-69
2022/06/05 07:47:44;;;;;;;1.40;1.30;;;21.30;91.60;;;;;;5067301;28;45456;-69
2022/06/05 07:50:12;;;;;;;1.50;1.40;;;21.30;91.60;;;;;;5073539;28;47584;-69
2022/06/05 07:55:23;;;;;;;1.60;1.50;;;21.30;91.60;;;;;;5071908;28;45230;-69
2022/06/05 07:57:51;;;;;;;2.75;1.52;;;21.30;91.60;;;;;;5051033;28;45489;-69
2022/06/05 08:00:18;;;;;;;1.75;1.55;;;21.30;91.70;;;;;;5068700;28;46161;-68
2022/06/05 08:02:46;;;;;;;1.70;1.60;;;21.30;91.60;;;;;;5057316;28;45280;-68
2022/06/05 08:05:12;;;;;;;1.55;1.42;;;21.30;91.70;;;;;;5054965;28;45335;-69
2022/06/05 08:07:39;;;;;;;1.45;1.30;;;21.30;91.70;;;;;;5062353;28;45562;-69
2022/06/05 08:10:07;;;;;;;1.55;1.45;;;21.30;91.70;;;;;;5064246;28;45301;-69
2022/06/05 08:12:36;;;;;;;1.60;1.50;;;21.20;91.60;;;;;;5056086;28;45426;-68
2022/06/05 08:15:08;;;;;;;2.60;1.70;;;21.30;91.70;;;;;;5062951;28;45185;-69
2022/06/05 08:17:36;;;;;;;2.60;1.65;;;21.30;91.60;;;;;;5058809;28;45446;-69
2022/06/05 08:20:07;;;;;;;2.00;1.80;;;21.30;91.80;;;;;;5056298;28;46296;-69
2022/06/05 08:22:34;;;;;;;1.65;1.55;;;21.30;91.80;;;;;;5060520;28;45279;-69
2022/06/05 08:25:01;;;;;;;1.90;1.70;;;21.20;91.70;;;;;;5067767;28;45381;-68
2022/06/05 08:27:29;;;;;;;1.70;1.60;;;21.30;91.90;;;;;;5061437;28;45342;-69
2022/06/05 08:29:58;;;;;;;2.50;2.00;;;21.30;91.90;;;;;;5065986;28;46272;-68
2022/06/05 08:32:26;;;;;;;1.60;1.50;;;21.30;92.10;;;;;;5065361;28;45492;-68
2022/06/05 08:34:53;;;;;;;2.08;1.40;;;21.30;92.30;;;;;;5067834;28;45293;-68
2022/06/05 08:43:20;;;;;;;2.40;1.63;;;21.30;92.40;;;;;;5055018;28;45445;-69
2022/06/05 08:45:54;;;;;;;2.60;1.92;;;21.30;92.50;;;;;;5072576;28;45263;-69
2022/06/05 08:48:28;;;;;;;2.85;2.00;;;21.30;92.60;;;;;;5064058;28;45291;-68
2022/06/05 08:50:59;;;;;;;2.10;1.90;;;21.30;92.70;;;;;;5055175;28;45496;-69
2022/06/05 08:53:41;;;;;;;2.28;1.98;;;21.30;92.60;;;;;;5058770;28;46733;-69
2022/06/05 08:56:12;;;;;;;2.08;1.88;;;21.30;92.50;;;;;;5050417;28;45264;-68
2022/06/05 08:58:45;;;;;;;2.40;2.17;;;21.30;92.30;;;;;;5071029;28;45217;-68
2022/06/05 09:01:17;;;;;;;2.25;2.05;;;21.30;92.30;;;;;;5064848;28;46380;-69
2022/06/05 09:03:48;;;;;;;2.22;1.95;;;21.30;92.50;;;;;;5071543;28;45418;-69
2022/06/05 09:06:20;;;;;;;1.95;1.80;;;21.30;92.50;;;;;;5059043;28;45433;-69
2022/06/05 09:08:54;;;;;;;2.60;2.20;;;21.30;92.90;;;;;;5051502;28;45745;-69
2022/06/05 09:11:33;;;;;;;2.08;1.85;;;21.30;92.90;;;;;;5057193;28;46254;-68
2022/06/05 09:14:07;;;;;;;2.45;2.03;;;21.30;93.10;;;;;;5054454;28;45454;-68
2022/06/05 09:16:38;;;;;;;2.67;2.28;;;21.30;93.50;;;;;;5058301;28;45551;-68
2022/06/05 09:19:05;;;;;;;2.70;2.00;;;21.30;93.40;;;;;;5059870;28;45416;-68
2022/06/05 09:21:38;;;;;;;2.60;2.17;;;21.30;93.60;;;;;;5053993;28;46476;-68
2022/06/05 09:24:13;;;;;;;3.38;2.25;;;21.30;93.70;;;;;;5058749;28;45535;-68
2022/06/05 09:26:43;;;;;;;2.30;2.03;;;21.30;93.80;;;;;;5060075;28;45411;-68
2022/06/05 09:29:34;;;;;;;2.60;1.77;;;21.30;94.00;;;;;;5067005;28;45516;-68
2022/06/05 09:32:33;;;;;;;2.40;2.20;;;21.30;94.20;;;;;;5064192;28;47218;-68
2022/06/05 09:35:03;;;;;;;2.85;2.35;;;21.30;94.30;;;;;;5063127;28;45603;-68
2022/06/05 09:37:40;;;;;;;4.10;2.38;;;21.30;94.60;;;;;;5061189;28;45668;-68
2022/06/05 09:40:18;;;;;;;2.78;2.30;;;21.30;94.50;;;;;;5067274;28;45210;-69
2022/06/05 09:43:07;;;;;;;2.97;2.25;;;21.30;94.50;;;;;;5065237;28;45230;-69
2022/06/05 09:45:49;;;;;;;2.95;2.42;;;21.30;94.60;;;;;;5074772;28;45489;-69
2022/06/05 09:48:25;;;;;;;3.67;2.35;;;21.30;94.70;;;;;;5064223;28;45421;-69
2022/06/05 09:50:52;;;;;;;2.70;2.50;;;21.40;95.10;;;;;;5066914;28;45210;-69
2022/06/05 09:53:24;;;;;;;2.50;2.10;;;21.40;94.80;;;;;;5075978;28;45292;-69
2022/06/05 09:56:02;;;;;;;3.85;3.30;;;21.40;94.90;;;;;;5080620;28;45270;-69
2022/06/05 09:58:51;;;;;;;3.28;2.95;;;21.40;95.00;;;;;;5070685;28;45240;-69
2022/06/05 10:01:25;;;;;;;4.18;3.22;;;21.40;95.10;;;;;;5069864;28;45149;-69
2022/06/05 10:03:52;;;;;;;4.55;2.75;;;21.40;95.30;;;;;;5070520;28;48258;-69
2022/06/05 10:06:25;;;;;;;4.15;3.15;;;21.40;95.30;;;;;;5069121;28;45340;-69
2022/06/05 10:08:57;;;;;;;2.72;2.50;;;21.40;95.50;;;;;;5067896;28;45318;-69
2022/06/05 10:11:34;;;;;;;3.80;2.95;;;21.40;95.60;;;;;;5070019;28;45402;-69
2022/06/05 10:14:08;;;;;;;3.80;2.60;;;21.40;95.60;;;;;;5067314;28;45975;-69
2022/06/05 10:16:42;;;;;;;3.40;2.75;;;21.40;95.60;;;;;;5069927;28;45266;-69
2022/06/05 10:19:29;;;;;;;3.50;2.60;;;21.40;95.60;;;;;;5065845;28;45169;-69
2022/06/05 10:22:03;;;;;;;2.65;2.42;;;21.40;95.80;;;;;;5069619;28;45479;-69
2022/06/05 10:24:44;;;;;;;5.25;2.33;;;21.40;95.70;;;;;;5065474;28;45568;-69
2022/06/05 10:27:15;;;;;;;3.83;2.65;;;21.40;95.70;;;;;;5070344;28;45234;-69
2022/06/05 10:29:47;;;;;;;3.78;2.83;;;21.40;95.70;;;;;;5070121;28;45172;-69
2022/06/05 10:32:20;;;;;;;3.10;2.60;;;21.40;95.80;;;;;;5066503;28;45314;-69
2022/06/05 10:34:53;;;;;;;3.45;2.25;;;21.40;95.70;;;;;;5069562;28;47678;-69
2022/06/05 10:37:24;;;;;;;3.40;2.80;;;21.40;95.80;;;;;;5066333;28;45269;-69
2022/06/05 10:40:06;;;;;;;3.72;2.80;;;21.40;96.00;;;;;;5061757;28;45265;-69
2022/06/05 10:42:40;;;;;;;3.60;2.70;;;21.40;96.10;;;;;;5067472;28;45280;-69
2022/06/05 10:45:20;;;;;;;3.03;2.50;;;21.40;96.30;;;;;;5069992;28;46196;-69
2022/06/05 10:48:00;;;;;;;3.67;2.80;;;21.40;96.40;;;;;;5069039;28;45105;-69
2022/06/05 10:50:32;;;;;;;4.72;3.20;;;21.40;96.50;;;;;;5069440;28;45281;-69
2022/06/05 10:53:10;;;;;;;3.58;3.15;;;21.40;96.50;;;;;;5065363;28;45327;-69
2022/06/05 10:55:48;;;;;;;4.72;4.03;;;21.40;96.60;;;;;;5069326;28;47905;-69
2022/06/05 10:58:23;;;;;;;4.38;3.65;;;21.40;96.70;;;;;;5070200;28;45166;-69
2022/06/05 11:01:03;;;;;;;3.90;3.20;;;21.40;96.70;;;;;;5063849;28;45251;-69
2022/06/05 11:03:43;;;;;;;4.53;3.17;;;21.40;96.50;;;;;;5068581;28;45173;-69
2022/06/05 11:06:27;;;;;;;3.88;3.25;;;21.40;96.50;;;;;;5069070;28;47919;-69
2022/06/05 11:09:09;;;;;;;3.35;2.83;;;21.40;96.60;;;;;;5062877;28;45204;-69
2022/06/05 11:14:39;;;;;;;3.15;2.50;;;21.40;96.50;;;;;;5069367;28;45129;-69
2022/06/05 11:17:24;;;;;;;4.53;2.72;;;21.40;96.70;;;;;;5069724;28;46405;-69
2022/06/05 11:20:01;;;;;;;3.20;2.83;;;21.40;96.70;;;;;;5067334;28;45145;-69
2022/06/05 11:22:30;;;;;;;2.88;2.55;;;21.40;96.70;;;;;;5067536;28;45288;-68
2022/06/05 11:24:59;;;;;;;3.15;2.85;;;21.40;96.70;;;;;;5065922;28;45181;-68
2022/06/05 11:27:32;;;;;;;4.57;2.75;;;21.40;96.70;;;;;;5069357;28;45256;-68
2022/06/05 11:30:07;;;;;;;2.78;2.47;;;21.40;96.70;;;;;;5068980;28;45134;-68
2022/06/05 11:32:51;;;;;;;2.97;2.67;;;21.40;96.60;;;;;;5068123;28;45299;-68
2022/06/05 11:35:31;;;;;;;3.00;2.63;;;21.40;96.60;;;;;;5068859;28;45453;-68
2022/06/05 11:38:16;;;;;;;2.40;2.20;;;21.40;96.60;;;;;;5063720;28;45265;-68
2022/06/05 11:40:47;;;;;;;2.95;2.60;;;21.40;96.60;;;;;;5060935;28;45236;-68
2022/06/05 11:43:28;;;;;;;2.72;2.45;;;21.40;96.60;;;;;;5068791;28;45295;-68
2022/06/05 11:46:04;;;;;;;2.75;2.50;;;21.40;96.60;;;;;;5067842;28;45450;-68
2022/06/05 11:48:37;;;;;;;3.25;2.67;;;21.40;96.50;;;;;;5065039;28;45978;-68
2022/06/05 11:51:10;;;;;;;2.83;2.50;;;21.40;96.60;;;;;;5068229;28;45276;-68
2022/06/05 11:53:45;;;;;;;2.50;2.30;;;21.40;96.50;;;;;;5072197;28;45195;-68
2022/06/05 11:56:30;;;;;;;4.07;2.85;;;21.40;96.60;;;;;;5061086;28;45726;-68
2022/06/05 11:59:05;;;;;;;4.47;3.15;;;21.40;96.70;;;;;;5069287;28;45312;-68
2022/06/05 12:01:38;;;;;;;3.90;2.95;;;21.40;96.70;;;;;;5071915;28;45204;-68
2022/06/05 12:04:15;;;;;;;3.30;3.00;;;21.40;96.70;;;;;;5082231;28;45126;-68
2022/06/05 12:06:46;;;;;;;3.45;2.97;;;21.40;96.80;;;;;;5067837;28;45618;-68
2022/06/05 12:09:16;;;;;;;4.25;3.42;;;21.40;96.70;;;;;;5062177;28;48449;-68
2022/06/05 12:11:50;;;;;;;4.32;3.67;;;21.40;96.80;;;;;;5068164;28;45153;-68
2022/06/05 12:14:22;;;;;;;3.63;3.33;;;21.40;96.80;;;;;;5065590;28;45120;-68
2022/06/05 12:16:57;;;;;;;5.00;3.60;;;21.40;96.70;;;;;;5066753;28;45467;-68
2022/06/05 12:19:37;;;;;;;5.80;3.33;;;21.40;96.80;;;;;;5066372;28;47947;-68
2022/06/05 12:22:14;;;;;;;4.38;3.08;;;21.40;96.80;;;;;;5066920;28;45149;-68
2022/06/05 12:24:47;;;;;;;3.53;2.80;;;21.40;96.80;;;;;;5067627;28;45355;-68
2022/06/05 12:27:17;;;;;;;5.00;2.90;;;21.40;96.80;;;;;;5066076;28;45756;-68
2022/06/05 12:29:48;;;;;;;2.85;2.50;;;21.40;96.80;;;;;;5067575;28;47121;-68
2022/06/05 12:32:23;;;;;;;4.07;2.78;;;21.40;96.70;;;;;;5065459;28;45288;-68
2022/06/05 12:34:58;;;;;;;2.95;2.65;;;21.40;96.70;;;;;;5067521;28;45233;-68
2022/06/05 12:37:29;;;;;;;3.65;2.50;;;21.40;96.60;;;;;;5061831;28;45427;-68
2022/06/05 12:39:57;;;;;;;2.88;2.50;;;21.40;96.70;;;;;;5066867;28;46602;-68
2022/06/05 12:42:35;;;;;;;2.60;2.40;;;21.40;96.70;;;;;;5066787;28;45611;-68
2022/06/05 12:45:05;;;;;;;4.00;2.85;;;21.40;96.80;;;;;;5065329;28;45233;-68
2022/06/05 12:47:51;;;;;;;3.53;2.75;;;21.40;96.70;;;;;;5065207;28;45266;-68
2022/06/05 12:50:34;;;;;;;2.95;2.45;;;21.40;96.70;;;;;;5067434;28;45529;-68
2022/06/05 12:53:06;;;;;;;3.05;2.40;;;21.40;96.70;;;;;;5069473;28;45242;-68
2022/06/05 12:55:38;;;;;;;2.65;2.45;;;21.40;96.70;;;;;;5066545;28;45417;-68
2022/06/05 12:58:15;;;;;;;3.10;2.60;;;21.40;96.70;;;;;;5048072;28;45253;-68
2022/06/05 13:00:50;;;;;;;3.38;2.45;;;21.40;97.20;;;;;;5045825;28;45992;-69
2022/06/05 13:03:25;;;;;;;2.90;2.60;;;21.40;96.80;;;;;;5064231;28;45768;-68
2022/06/05 13:05:58;;;;;;;2.50;2.30;;;21.40;96.70;;;;;;5066020;28;45355;-68
2022/06/05 13:08:31;;;;;;;2.60;2.40;;;21.40;96.80;;;;;;5066646;28;45299;-68
2022/06/05 13:11:05;;;;;;;3.15;2.53;;;21.40;96.70;;;;;;5066670;28;47504;-68
2022/06/05 13:13:43;;;;;;;3.17;2.80;;;21.40;96.70;;;;;;5065763;28;45944;-68
2022/06/05 13:16:22;;;;;;;2.90;2.60;;;21.40;96.70;;;;;;5067021;28;45143;-68
2022/06/05 13:19:02;;;;;;;3.15;2.53;;;21.40;96.70;;;;;;5064206;28;45193;-68
2022/06/05 13:21:35;;;;;;;3.00;2.40;;;21.40;96.80;;;;;;5065443;28;47951;-68
2022/06/05 13:24:14;;;;;;;3.50;2.30;;;21.40;96.80;;;;;;5067474;28;45240;-68
2022/06/05 13:26:51;;;;;;;2.75;2.40;;;21.40;96.70;;;;;;5063635;28;45370;-68
2022/06/05 13:29:35;;;;;;;2.63;2.33;;;21.40;96.70;;;;;;5064236;28;45237;-68